Time;durP1;ratioP1;P1;durP2;ratioP2;P2;SDS_P1;SDS_P2;PMS_P1;PMS_P2;Temp;Humidity;BMP_temperature;BMP_pressure;BME280_temperature;BME280_humidity;BME280_pressure;Samples;Min_cycle;Max_cycle;Signal;HPM_P1;HPM_P2
2022/03/21 00:00:57;;;;;;;12.30;10.30;;;6.40;75.10;;;;;;4978819;28;20196;-87
2022/03/21 00:03:25;;;;;;;13.73;11.30;;;6.30;75.80;;;;;;4973025;28;20475;-87
2022/03/21 00:05:51;;;;;;;11.70;9.80;;;6.20;75.60;;;;;;4986759;28;20583;-87
2022/03/21 00:08:18;;;;;;;16.53;10.27;;;6.20;76.60;;;;;;4990370;28;20442;-87
2022/03/21 00:11:06;;;;;;;13.60;10.63;;;6.10;76.60;;;;;;4970807;28;20574;-87
2022/03/21 00:13:31;;;;;;;12.77;9.87;;;6.10;76.30;;;;;;4975809;28;20494;-88
2022/03/21 00:15:57;;;;;;;12.37;10.23;;;6.10;76.40;;;;;;4989469;28;20439;-87
2022/03/21 00:18:25;;;;;;;12.90;10.73;;;5.90;76.80;;;;;;4974523;28;20224;-88
2022/03/21 00:20:54;;;;;;;12.13;9.63;;;5.90;76.80;;;;;;5002029;28;20507;-87
2022/03/21 00:23:29;;;;;;;12.97;10.77;;;5.90;76.10;;;;;;4988814;28;20451;-88
2022/03/21 00:25:54;;;;;;;12.87;10.03;;;6.00;76.30;;;;;;4981930;28;20436;-88
2022/03/21 00:28:20;;;;;;;12.83;9.80;;;6.10;76.10;;;;;;4980674;28;20508;-88
2022/03/21 00:30:46;;;;;;;12.70;10.00;;;5.90;76.70;;;;;;4975253;28;20186;-88
2022/03/21 00:33:12;;;;;;;14.37;10.63;;;6.00;76.50;;;;;;4984923;28;20199;-89
2022/03/21 00:35:38;;;;;;;15.07;10.77;;;6.00;77.40;;;;;;4981080;28;20454;-88
2022/03/21 00:38:05;;;;;;;13.23;10.53;;;6.00;78.10;;;;;;4974336;28;20477;-88
2022/03/21 00:40:31;;;;;;;14.40;10.40;;;5.90;79.10;;;;;;4974058;28;20192;-87
2022/03/21 00:42:59;;;;;;;16.17;10.37;;;6.00;80.10;;;;;;4993258;28;20474;-87
2022/03/21 00:45:26;;;;;;;15.53;10.67;;;6.00;80.60;;;;;;4972603;28;20451;-88
2022/03/21 00:47:53;;;;;;;13.27;11.33;;;6.00;79.50;;;;;;4978456;28;21039;-88
2022/03/21 00:50:21;;;;;;;13.10;9.93;;;5.90;79.80;;;;;;4974001;28;20446;-88
2022/03/21 00:52:49;;;;;;;11.83;10.60;;;5.70;81.00;;;;;;4975937;28;20452;-87
2022/03/21 00:55:18;;;;;;;12.97;9.90;;;5.60;80.30;;;;;;4988689;28;20449;-90
2022/03/21 00:57:44;;;;;;;13.90;11.07;;;5.50;80.90;;;;;;4995994;28;20496;-88
2022/03/21 01:00:16;;;;;;;12.40;11.10;;;5.40;81.90;;;;;;4972838;28;20448;-88
2022/03/21 01:02:42;;;;;;;14.00;11.07;;;5.30;83.00;;;;;;4997536;28;20458;-87
2022/03/21 01:05:08;;;;;;;12.10;10.70;;;5.30;83.80;;;;;;5001992;28;20483;-87
2022/03/21 01:07:35;;;;;;;12.50;9.97;;;5.40;84.70;;;;;;4982613;28;20443;-87
2022/03/21 01:10:00;;;;;;;15.23;10.30;;;5.30;84.30;;;;;;4974709;28;20542;-87
2022/03/21 01:12:27;;;;;;;13.13;10.83;;;5.20;84.40;;;;;;4991507;28;20793;-88
2022/03/21 01:14:55;;;;;;;15.37;11.20;;;5.00;85.90;;;;;;4997312;28;20382;-88
2022/03/21 01:17:26;;;;;;;13.47;10.47;;;4.90;85.20;;;;;;4974039;28;20851;-86
2022/03/21 01:19:55;;;;;;;15.70;10.80;;;4.90;85.70;;;;;;4972942;28;20529;-88
2022/03/21 01:22:21;;;;;;;12.40;10.07;;;4.90;85.80;;;;;;4976083;28;20439;-88
2022/03/21 01:24:54;;;;;;;13.20;10.43;;;4.80;86.00;;;;;;4994797;28;20449;-88
2022/03/21 01:27:20;;;;;;;13.80;10.17;;;4.90;85.60;;;;;;4972616;28;20432;-88
2022/03/21 01:29:45;;;;;;;13.53;10.43;;;5.10;86.40;;;;;;4974131;28;20208;-87
2022/03/21 01:32:11;;;;;;;12.70;9.43;;;5.20;85.20;;;;;;4966682;28;20441;-87
2022/03/21 01:34:36;;;;;;;13.10;9.73;;;5.10;84.90;;;;;;4969116;28;20193;-88
2022/03/21 01:37:02;;;;;;;12.70;10.63;;;5.10;86.20;;;;;;4981196;28;20210;-87
2022/03/21 01:39:28;;;;;;;13.50;10.80;;;5.10;87.20;;;;;;4993324;28;20347;-87
2022/03/21 01:41:53;;;;;;;14.37;10.83;;;5.00;88.00;;;;;;4975763;28;20212;-87
2022/03/21 01:44:20;;;;;;;11.20;10.00;;;5.00;87.40;;;;;;4976297;28;20242;-87
2022/03/21 01:46:46;;;;;;;14.20;11.23;;;4.90;87.40;;;;;;4974371;28;20196;-87
2022/03/21 01:49:14;;;;;;;12.03;10.23;;;4.90;87.50;;;;;;4963155;28;21302;-87
2022/03/21 01:51:41;;;;;;;13.60;10.60;;;4.90;88.80;;;;;;4969277;28;20749;-87
2022/03/21 01:56:52;;;;;;;12.50;9.73;;;4.80;88.80;;;;;;4998226;28;20446;-88
2022/03/21 01:59:19;;;;;;;11.00;9.60;;;4.80;89.40;;;;;;4977235;28;20502;-88
2022/03/21 02:01:45;;;;;;;12.70;9.70;;;4.80;89.80;;;;;;4980191;28;20875;-87
2022/03/21 02:04:11;;;;;;;11.87;10.43;;;4.70;90.20;;;;;;4972651;28;20516;-88
2022/03/21 02:06:37;;;;;;;13.00;9.57;;;4.70;90.10;;;;;;4986595;28;20470;-88
2022/03/21 02:09:09;;;;;;;13.17;10.43;;;4.60;90.00;;;;;;4988808;28;20442;-87
2022/03/21 02:11:35;;;;;;;13.47;10.67;;;4.50;90.30;;;;;;4968876;28;20533;-87
2022/03/21 02:14:03;;;;;;;14.80;10.40;;;4.50;90.50;;;;;;4977731;28;20549;-88
2022/03/21 02:16:31;;;;;;;13.23;10.03;;;4.50;90.70;;;;;;4988084;28;20575;-88
2022/03/21 02:19:04;;;;;;;13.07;10.70;;;4.60;90.80;;;;;;4987862;28;20490;-88
2022/03/21 02:21:57;;;;;;;11.10;9.60;;;4.60;90.80;;;;;;4973512;28;20451;-88
2022/03/21 02:24:49;;;;;;;10.60;9.50;;;4.50;90.80;;;;;;4969046;28;20542;-87
2022/03/21 02:27:17;;;;;;;13.80;9.77;;;4.40;90.90;;;;;;4970738;28;20945;-87
2022/03/21 02:29:44;;;;;;;12.00;9.73;;;4.20;91.20;;;;;;4995794;28;20542;-88
2022/03/21 02:32:10;;;;;;;13.03;9.90;;;4.30;91.50;;;;;;4972357;28;20883;-87
2022/03/21 02:34:38;;;;;;;11.50;10.30;;;4.50;91.30;;;;;;4989132;28;20804;-88
2022/03/21 02:37:06;;;;;;;12.40;10.00;;;4.50;90.90;;;;;;4989886;28;20179;-88
2022/03/21 02:39:34;;;;;;;14.57;10.60;;;4.40;90.10;;;;;;4975605;28;21039;-88
2022/03/21 02:42:00;;;;;;;11.60;9.40;;;4.50;90.50;;;;;;4975098;28;20529;-88
2022/03/21 02:44:32;;;;;;;10.50;9.40;;;4.40;91.20;;;;;;4974695;28;20451;-88
2022/03/21 02:46:58;;;;;;;13.90;10.20;;;4.30;90.80;;;;;;4968731;28;20642;-87
2022/03/21 02:49:24;;;;;;;13.27;10.90;;;4.30;91.10;;;;;;4968596;28;20441;-88
2022/03/21 02:51:51;;;;;;;11.70;10.17;;;4.40;91.00;;;;;;4976265;28;20439;-88
2022/03/21 02:54:19;;;;;;;11.63;9.67;;;4.40;90.70;;;;;;4973479;28;20191;-88
2022/03/21 02:56:50;;;;;;;11.33;9.70;;;4.50;91.10;;;;;;4978904;28;20458;-88
2022/03/21 02:59:16;;;;;;;15.20;10.30;;;4.50;91.50;;;;;;4986666;28;20482;-88
2022/03/21 03:01:42;;;;;;;13.90;9.10;;;4.50;91.30;;;;;;4995988;28;20434;-88
2022/03/21 03:04:08;;;;;;;12.13;8.57;;;4.30;90.70;;;;;;5006525;28;20447;-89
2022/03/21 03:06:34;;;;;;;11.20;9.43;;;4.30;91.10;;;;;;4996456;28;20176;-88
2022/03/21 03:09:00;;;;;;;10.50;8.90;;;4.20;91.10;;;;;;4993409;28;20185;-88
2022/03/21 03:11:25;;;;;;;11.63;10.37;;;4.20;91.20;;;;;;4977215;28;20958;-88
2022/03/21 03:13:51;;;;;;;12.70;10.50;;;4.20;91.20;;;;;;4977183;28;20450;-88
2022/03/21 03:16:17;;;;;;;12.50;9.60;;;4.10;91.60;;;;;;4974324;28;21660;-88
2022/03/21 03:18:44;;;;;;;10.87;9.57;;;4.10;91.90;;;;;;4997107;28;20207;-88
2022/03/21 03:21:10;;;;;;;13.17;9.80;;;4.10;91.70;;;;;;4972338;28;20442;-88
2022/03/21 03:23:38;;;;;;;12.27;10.00;;;4.20;91.40;;;;;;4987802;28;20700;-88
2022/03/21 03:26:05;;;;;;;11.60;8.60;;;4.20;91.50;;;;;;4981136;28;20526;-87
2022/03/21 03:28:31;;;;;;;12.30;9.00;;;4.20;91.60;;;;;;4979531;28;20592;-88
2022/03/21 03:30:59;;;;;;;11.60;10.20;;;4.20;91.70;;;;;;4972816;28;20498;-88
2022/03/21 03:33:25;;;;;;;10.93;9.70;;;4.20;91.50;;;;;;4978332;28;20438;-88
2022/03/21 03:35:51;;;;;;;10.17;8.60;;;4.10;91.70;;;;;;4993111;28;20535;-88
2022/03/21 03:38:17;;;;;;;11.50;9.30;;;3.90;91.90;;;;;;4992701;28;20490;-87
2022/03/21 03:40:43;;;;;;;11.27;8.30;;;3.90;92.40;;;;;;4975118;28;20445;-88
2022/03/21 03:43:10;;;;;;;12.37;9.20;;;3.90;92.60;;;;;;4977625;28;20452;-88
2022/03/21 03:45:36;;;;;;;11.90;10.20;;;3.90;92.60;;;;;;4982083;28;20571;-87
2022/03/21 03:48:02;;;;;;;13.20;9.20;;;3.80;92.10;;;;;;4977216;28;20443;-88
2022/03/21 03:50:28;;;;;;;11.97;10.10;;;3.80;92.70;;;;;;4994745;28;20931;-88
2022/03/21 03:52:53;;;;;;;10.77;8.87;;;3.90;92.50;;;;;;4976395;28;20462;-88
2022/03/21 03:55:19;;;;;;;10.33;8.60;;;3.90;92.50;;;;;;4973023;28;20442;-88
2022/03/21 03:57:45;;;;;;;11.10;8.93;;;4.00;92.20;;;;;;4978221;28;20219;-88
2022/03/21 04:00:17;;;;;;;15.60;9.33;;;4.00;92.20;;;;;;4970162;28;20196;-88
2022/03/21 04:05:30;;;;;;;12.30;9.33;;;3.90;92.40;;;;;;4995668;28;20448;-87
2022/03/21 04:07:56;;;;;;;11.23;8.80;;;4.00;92.80;;;;;;4994655;28;21262;-87
2022/03/21 04:10:24;;;;;;;11.17;9.70;;;3.80;92.40;;;;;;4989882;28;20199;-88
2022/03/21 04:12:50;;;;;;;11.33;9.23;;;3.90;93.00;;;;;;4975540;28;20749;-87
2022/03/21 04:15:21;;;;;;;11.63;9.23;;;3.90;92.80;;;;;;4978128;28;20477;-88
2022/03/21 04:17:47;;;;;;;10.47;8.70;;;3.80;93.10;;;;;;4981368;28;21282;-88
2022/03/21 04:20:13;;;;;;;10.37;8.83;;;3.80;93.00;;;;;;4979795;28;20450;-88
2022/03/21 04:22:39;;;;;;;12.73;9.20;;;3.70;93.10;;;;;;4976963;28;20188;-87
2022/03/21 04:25:07;;;;;;;10.67;8.30;;;3.70;93.30;;;;;;4967573;28;20479;-88
2022/03/21 04:27:36;;;;;;;12.03;9.10;;;3.70;93.70;;;;;;4976756;28;20184;-87
2022/03/21 04:30:02;;;;;;;10.20;8.50;;;3.60;93.60;;;;;;4997486;28;20446;-88
2022/03/21 04:32:28;;;;;;;10.97;8.83;;;3.60;93.60;;;;;;4995767;28;20446;-87
2022/03/21 04:34:54;;;;;;;12.60;9.40;;;3.60;93.30;;;;;;4974080;28;21574;-89
2022/03/21 04:37:19;;;;;;;12.23;9.50;;;3.60;93.50;;;;;;4975992;28;20194;-89
2022/03/21 04:39:51;;;;;;;13.30;9.30;;;3.70;94.20;;;;;;4978484;28;20906;-87
2022/03/21 04:42:17;;;;;;;9.80;8.20;;;3.70;93.90;;;;;;4975433;28;20277;-87
2022/03/21 04:44:44;;;;;;;12.53;9.43;;;3.70;93.70;;;;;;4975843;28;20446;-87
2022/03/21 04:47:10;;;;;;;12.10;9.20;;;3.70;94.40;;;;;;4973120;28;20229;-87
2022/03/21 04:49:36;;;;;;;12.40;9.37;;;3.70;94.50;;;;;;4972688;28;20532;-86
2022/03/21 04:52:02;;;;;;;13.87;10.13;;;3.50;94.20;;;;;;4983514;28;20447;-87
2022/03/21 04:54:30;;;;;;;13.50;10.37;;;3.50;94.60;;;;;;4984748;28;20446;-88
2022/03/21 04:56:56;;;;;;;10.40;8.97;;;3.30;95.40;;;;;;4971187;28;20457;-87
2022/03/21 04:59:22;;;;;;;13.40;9.33;;;3.30;96.10;;;;;;4994900;28;20477;-88
2022/03/21 05:01:47;;;;;;;13.97;9.67;;;3.30;95.80;;;;;;4979204;28;20443;-86
2022/03/21 05:04:14;;;;;;;14.53;10.23;;;3.20;96.90;;;;;;4976726;28;20277;-86
2022/03/21 05:06:39;;;;;;;10.27;9.17;;;3.20;96.90;;;;;;4989232;28;20188;-87
2022/03/21 05:09:06;;;;;;;11.37;9.67;;;3.20;97.40;;;;;;4974392;28;21008;-89
2022/03/21 05:11:31;;;;;;;12.53;10.27;;;3.30;97.20;;;;;;4973794;28;20187;-89
2022/03/21 05:13:57;;;;;;;16.23;11.40;;;3.40;96.80;;;;;;4970638;28;20489;-87
2022/03/21 05:16:23;;;;;;;12.17;10.00;;;3.30;96.80;;;;;;4980771;28;20278;-88
2022/03/21 05:18:55;;;;;;;13.13;10.47;;;3.40;97.10;;;;;;4990708;28;22353;-89
2022/03/21 05:21:20;;;;;;;13.37;9.90;;;3.30;97.20;;;;;;4985337;28;20439;-87
2022/03/21 05:32:38;;;;;;;11.13;8.83;;;3.10;98.20;;;;;;4989102;28;21067;-86
2022/03/21 05:37:47;;;;;;;16.30;9.70;;;3.10;98.50;;;;;;4994704;28;21060;-87
2022/03/21 05:40:31;;;;;;;11.67;9.20;;;2.90;98.20;;;;;;4979019;28;20445;-86
2022/03/21 05:42:57;;;;;;;16.10;10.23;;;2.90;98.40;;;;;;4974566;28;20191;-86
2022/03/21 05:45:23;;;;;;;13.57;9.00;;;2.90;98.40;;;;;;4989923;28;20447;-87
2022/03/21 05:50:40;;;;;;;17.87;9.77;;;3.00;97.70;;;;;;4996541;28;20533;-85
2022/03/21 05:53:08;;;;;;;14.03;10.47;;;3.00;97.90;;;;;;5002821;28;20789;-87
2022/03/21 05:55:34;;;;;;;11.90;8.80;;;3.00;97.90;;;;;;4998116;28;20455;-87
2022/03/21 05:58:00;;;;;;;13.00;9.60;;;3.00;98.10;;;;;;5008234;28;20483;-87
2022/03/21 06:00:28;;;;;;;12.77;10.10;;;3.00;97.60;;;;;;4991836;28;20466;-87
2022/03/21 06:02:54;;;;;;;10.37;8.43;;;3.10;98.00;;;;;;4974997;28;20878;-87
2022/03/21 06:05:22;;;;;;;13.00;9.83;;;3.20;98.10;;;;;;4969830;28;20203;-87
2022/03/21 06:07:49;;;;;;;15.20;9.90;;;3.20;97.50;;;;;;4979814;28;20582;-87
2022/03/21 06:10:15;;;;;;;13.70;9.93;;;3.30;97.50;;;;;;4992616;28;20452;-86
2022/03/21 06:12:41;;;;;;;15.20;10.43;;;3.30;97.70;;;;;;4972899;28;20951;-87
2022/03/21 06:15:08;;;;;;;13.17;9.50;;;3.10;97.60;;;;;;4972159;28;20606;-89
2022/03/21 06:17:41;;;;;;;11.93;10.17;;;3.10;98.10;;;;;;4969851;28;20184;-88
2022/03/21 06:20:11;;;;;;;12.10;9.73;;;3.40;98.10;;;;;;4973260;28;21238;-88
2022/03/21 06:22:39;;;;;;;12.73;9.30;;;3.50;97.40;;;;;;4987581;28;20449;-87
2022/03/21 06:25:07;;;;;;;13.43;9.60;;;3.70;97.70;;;;;;4978842;28;20496;-88
2022/03/21 06:27:37;;;;;;;13.37;10.70;;;3.80;97.60;;;;;;4972328;28;20443;-87
2022/03/21 06:30:04;;;;;;;12.43;9.97;;;4.00;97.40;;;;;;4977435;28;20557;-87
2022/03/21 06:32:30;;;;;;;13.30;9.70;;;4.10;97.20;;;;;;4998624;28;20439;-87
2022/03/21 06:34:55;;;;;;;13.70;10.20;;;4.20;96.80;;;;;;4969829;28;20484;-87
2022/03/21 06:37:21;;;;;;;14.80;11.47;;;4.40;96.90;;;;;;4980072;28;20234;-89
2022/03/21 06:39:47;;;;;;;12.57;10.80;;;4.50;96.30;;;;;;4987910;28;20221;-87
2022/03/21 06:42:14;;;;;;;14.37;11.43;;;4.70;96.10;;;;;;4971749;28;20187;-87
2022/03/21 06:44:41;;;;;;;18.20;11.97;;;4.80;96.60;;;;;;4970304;28;21252;-87
2022/03/21 06:47:07;;;;;;;14.73;10.73;;;4.80;96.80;;;;;;4998243;28;20436;-87
2022/03/21 06:49:32;;;;;;;15.27;12.10;;;4.80;97.70;;;;;;4972495;28;20577;-87
2022/03/21 06:52:02;;;;;;;13.20;11.50;;;4.80;98.10;;;;;;4970283;28;20181;-87
2022/03/21 06:54:29;;;;;;;14.57;11.40;;;5.00;97.50;;;;;;4972393;28;20303;-87
2022/03/21 06:56:55;;;;;;;17.40;12.10;;;5.20;97.00;;;;;;4972673;28;20438;-87
2022/03/21 06:59:21;;;;;;;14.23;11.60;;;5.40;97.00;;;;;;4971757;28;20901;-87
2022/03/21 07:01:48;;;;;;;14.90;13.17;;;5.60;96.70;;;;;;4980529;28;20210;-88
2022/03/21 07:04:14;;;;;;;13.37;11.93;;;5.70;96.00;;;;;;4990407;28;20202;-87
2022/03/21 07:06:39;;;;;;;15.00;12.37;;;5.90;95.30;;;;;;4994143;28;21045;-87
2022/03/21 07:09:05;;;;;;;19.70;13.03;;;6.20;94.50;;;;;;4965933;28;20562;-87
2022/03/21 07:11:32;;;;;;;16.83;11.83;;;6.50;94.10;;;;;;4982091;28;20187;-87
2022/03/21 07:13:57;;;;;;;15.63;12.37;;;6.70;93.20;;;;;;4968665;28;20319;-88
2022/03/21 07:16:26;;;;;;;18.97;12.43;;;6.80;92.60;;;;;;4985448;28;20442;-88
2022/03/21 07:19:00;;;;;;;15.60;11.97;;;6.90;92.50;;;;;;4986419;28;20247;-87
2022/03/21 07:21:26;;;;;;;13.50;11.70;;;7.00;91.60;;;;;;4985049;28;20443;-88
2022/03/21 07:23:51;;;;;;;16.17;12.73;;;7.20;90.50;;;;;;4989660;28;20891;-88
2022/03/21 07:26:17;;;;;;;15.20;12.37;;;7.20;91.80;;;;;;4965530;28;20939;-87
2022/03/21 07:28:51;;;;;;;15.43;11.90;;;7.40;90.80;;;;;;4988176;28;20842;-88
2022/03/21 07:31:23;;;;;;;18.37;12.80;;;7.60;89.50;;;;;;4976405;28;20489;-88
2022/03/21 07:33:49;;;;;;;13.40;11.67;;;7.80;86.40;;;;;;4999947;28;20435;-88
2022/03/21 07:36:18;;;;;;;13.20;10.80;;;7.90;83.50;;;;;;4978386;28;20534;-87
2022/03/21 07:38:43;;;;;;;14.53;12.80;;;8.00;83.30;;;;;;4998698;28;20474;-87
2022/03/21 07:41:09;;;;;;;15.57;12.50;;;8.00;82.70;;;;;;4979346;28;20768;-87
2022/03/21 07:43:35;;;;;;;14.80;12.40;;;8.10;82.50;;;;;;4982700;28;20184;-87
2022/03/21 07:48:45;;;;;;;14.80;11.60;;;8.10;81.30;;;;;;5001951;28;20535;-87
2022/03/21 07:51:11;;;;;;;13.10;11.70;;;8.20;82.30;;;;;;4984338;28;20446;-88
2022/03/21 07:53:37;;;;;;;12.50;11.20;;;8.30;80.60;;;;;;4984291;28;20191;-87
2022/03/21 07:56:03;;;;;;;14.97;11.77;;;8.40;80.40;;;;;;4977803;28;20452;-87
2022/03/21 07:58:29;;;;;;;17.20;11.97;;;8.50;80.40;;;;;;4980242;28;20281;-87
2022/03/21 08:00:56;;;;;;;13.30;11.03;;;8.60;79.50;;;;;;4980596;28;20306;-87
2022/03/21 08:03:22;;;;;;;14.00;12.40;;;8.70;79.30;;;;;;4976400;28;20533;-88
2022/03/21 08:05:48;;;;;;;15.70;12.33;;;8.80;80.20;;;;;;4979578;28;20470;-87
2022/03/21 08:08:15;;;;;;;14.07;10.93;;;8.70;80.40;;;;;;4980507;28;20457;-88
2022/03/21 08:10:41;;;;;;;12.90;11.40;;;8.70;79.80;;;;;;4981308;28;20240;-88
2022/03/21 08:13:08;;;;;;;14.90;11.90;;;8.80;78.80;;;;;;4983701;28;21044;-87
2022/03/21 08:15:35;;;;;;;13.53;11.80;;;8.70;78.10;;;;;;5001127;28;20191;-87
2022/03/21 08:18:03;;;;;;;14.70;11.43;;;8.80;78.00;;;;;;4980840;28;20484;-88
2022/03/21 08:20:33;;;;;;;14.27;11.90;;;8.60;78.00;;;;;;4978856;28;20441;-87
2022/03/21 08:23:00;;;;;;;15.10;12.10;;;8.70;79.00;;;;;;4982798;28;20444;-88
2022/03/21 08:25:27;;;;;;;13.80;12.23;;;8.70;77.00;;;;;;4981336;28;20456;-88
2022/03/21 08:27:52;;;;;;;14.80;12.03;;;8.70;76.70;;;;;;4983673;28;20443;-86
2022/03/21 08:30:32;;;;;;;15.10;12.90;;;8.70;77.90;;;;;;4986905;28;20480;-87
2022/03/21 08:32:58;;;;;;;14.57;12.23;;;9.10;78.70;;;;;;4978484;28;20197;-87
2022/03/21 08:35:24;;;;;;;15.80;12.67;;;9.20;75.50;;;;;;4984244;28;20523;-88
2022/03/21 08:37:49;;;;;;;14.57;11.57;;;9.40;75.00;;;;;;4982812;28;20184;-88
2022/03/21 08:40:19;;;;;;;16.50;13.03;;;9.20;73.70;;;;;;4976966;28;20663;-89
2022/03/21 08:42:45;;;;;;;14.60;12.63;;;9.20;75.40;;;;;;4986263;28;20765;-88
2022/03/21 08:45:12;;;;;;;13.30;11.90;;;9.10;73.70;;;;;;4979753;28;20548;-88
2022/03/21 08:47:38;;;;;;;17.80;12.17;;;8.90;75.10;;;;;;4982464;28;20952;-89
2022/03/21 08:50:05;;;;;;;15.00;12.10;;;9.20;75.10;;;;;;4980690;28;20446;-88
2022/03/21 08:52:31;;;;;;;14.03;11.90;;;9.60;72.90;;;;;;4995329;28;21050;-88
2022/03/21 08:54:57;;;;;;;14.43;12.90;;;9.90;72.90;;;;;;4977670;28;20533;-88
2022/03/21 08:57:26;;;;;;;15.90;11.73;;;10.00;70.70;;;;;;4983301;28;20198;-89
2022/03/21 08:59:52;;;;;;;13.03;11.50;;;10.10;70.40;;;;;;4983827;28;20306;-88
2022/03/21 09:02:21;;;;;;;17.10;13.40;;;10.30;69.70;;;;;;4997513;28;20453;-89
2022/03/21 09:04:58;;;;;;;15.70;12.93;;;10.40;70.80;;;;;;4979422;28;22426;-90
2022/03/21 09:07:41;;;;;;;17.43;13.17;;;10.50;69.10;;;;;;5003837;28;20459;-89
2022/03/21 09:10:10;;;;;;;15.67;12.40;;;10.60;72.40;;;;;;4974453;28;20477;-88
2022/03/21 09:12:35;;;;;;;14.03;12.43;;;10.70;69.40;;;;;;4978243;28;20263;-88
2022/03/21 09:15:01;;;;;;;15.40;13.20;;;11.00;69.00;;;;;;4976716;28;20577;-88
2022/03/21 09:17:28;;;;;;;13.40;11.60;;;11.00;66.40;;;;;;5002386;28;20180;-90
2022/03/21 09:19:54;;;;;;;14.50;13.00;;;11.20;66.50;;;;;;4986263;28;24413;-88
2022/03/21 09:22:19;;;;;;;16.13;12.60;;;11.50;67.20;;;;;;4984655;28;20510;-88
2022/03/21 09:24:45;;;;;;;15.40;13.00;;;11.70;63.70;;;;;;4980738;28;20211;-89
2022/03/21 09:27:11;;;;;;;18.60;13.80;;;12.10;62.90;;;;;;4975908;28;20192;-88
2022/03/21 09:29:37;;;;;;;18.50;13.10;;;11.70;64.00;;;;;;4976838;28;20458;-87
2022/03/21 09:32:03;;;;;;;15.03;13.27;;;11.60;64.90;;;;;;4989624;28;20893;-87
2022/03/21 09:34:28;;;;;;;14.00;12.60;;;11.60;66.10;;;;;;4988226;28;21505;-88
2022/03/21 09:36:54;;;;;;;15.80;13.53;;;11.60;66.90;;;;;;4980675;28;20485;-88
2022/03/21 09:39:20;;;;;;;15.97;13.53;;;12.10;66.00;;;;;;5000060;28;20585;-88
2022/03/21 09:41:46;;;;;;;16.20;13.97;;;12.60;65.70;;;;;;4989552;28;20413;-88
2022/03/21 09:44:12;;;;;;;16.20;14.20;;;13.00;62.10;;;;;;4989232;28;20199;-88
2022/03/21 09:46:42;;;;;;;16.97;14.37;;;13.60;60.30;;;;;;4994853;28;22379;-89
2022/03/21 09:49:10;;;;;;;15.30;13.70;;;13.30;62.70;;;;;;4995955;28;20183;-88
2022/03/21 09:51:37;;;;;;;16.70;14.90;;;12.70;61.50;;;;;;4973073;28;20439;-89
2022/03/21 09:54:03;;;;;;;16.37;14.73;;;12.60;62.50;;;;;;4996598;28;20462;-88
2022/03/21 09:56:29;;;;;;;16.37;13.03;;;12.50;62.20;;;;;;4972371;28;20446;-89
2022/03/21 09:58:59;;;;;;;15.50;13.70;;;12.60;63.90;;;;;;4986777;28;20583;-89
2022/03/21 10:01:25;;;;;;;16.73;15.00;;;12.40;64.30;;;;;;4972911;28;20570;-89
2022/03/21 10:03:51;;;;;;;18.63;14.90;;;12.60;67.00;;;;;;4985128;28;22199;-89
2022/03/21 10:06:39;;;;;;;16.20;14.50;;;13.40;62.90;;;;;;4990210;28;20878;-88
2022/03/21 10:09:05;;;;;;;15.57;13.97;;;13.70;60.90;;;;;;4979826;28;20882;-89
2022/03/21 10:11:31;;;;;;;16.60;14.33;;;14.10;59.60;;;;;;4973480;28;20450;-89
2022/03/21 10:13:56;;;;;;;17.53;15.63;;;14.80;59.40;;;;;;4977630;28;20786;-90
2022/03/21 10:16:22;;;;;;;16.63;14.63;;;14.60;58.30;;;;;;4981188;28;20835;-89
2022/03/21 10:18:54;;;;;;;17.33;15.00;;;14.40;60.80;;;;;;5002331;28;20274;-89
2022/03/21 10:21:24;;;;;;;18.03;15.23;;;14.30;60.10;;;;;;4998765;28;20464;-89
2022/03/21 10:24:06;;;;;;;17.20;14.57;;;14.90;60.80;;;;;;4978192;28;20448;-89
2022/03/21 10:26:36;;;;;;;16.00;14.30;;;15.50;65.00;;;;;;4983493;28;20513;-90
2022/03/21 10:29:07;;;;;;;16.40;14.70;;;15.90;59.60;;;;;;4988292;28;20447;-90
2022/03/21 10:31:39;;;;;;;17.67;15.87;;;16.10;62.30;;;;;;4991449;28;20901;-90
2022/03/21 10:34:09;;;;;;;17.17;15.47;;;16.10;60.20;;;;;;4987424;28;20443;-90
2022/03/21 10:36:55;;;;;;;21.73;15.13;;;15.90;60.20;;;;;;4991263;28;20540;-90
2022/03/21 10:39:21;;;;;;;18.90;15.47;;;15.40;58.70;;;;;;5004952;28;20478;-89
2022/03/21 10:41:49;;;;;;;17.27;15.57;;;15.40;61.90;;;;;;4989545;28;20438;-89
2022/03/21 10:44:17;;;;;;;17.83;16.07;;;15.80;61.30;;;;;;4989286;28;20194;-88
2022/03/21 10:46:43;;;;;;;18.70;16.23;;;16.20;62.90;;;;;;4996198;28;21679;-89
2022/03/21 10:49:25;;;;;;;19.30;15.70;;;16.00;66.30;;;;;;5012179;28;20443;-88
2022/03/21 10:51:53;;;;;;;17.63;15.70;;;15.70;59.80;;;;;;4982835;28;20525;-90
2022/03/21 10:54:39;;;;;;;16.77;14.97;;;15.70;59.50;;;;;;4979465;28;20470;-88
2022/03/21 10:57:06;;;;;;;17.10;15.33;;;15.90;60.50;;;;;;4997616;28;20434;-89
2022/03/21 10:59:33;;;;;;;18.17;15.80;;;15.90;60.20;;;;;;4987107;28;20672;-87
2022/03/21 11:02:14;;;;;;;19.73;15.77;;;15.90;59.50;;;;;;4984883;28;20442;-88
2022/03/21 11:04:42;;;;;;;19.40;17.30;;;16.00;60.80;;;;;;4993297;28;20502;-88
2022/03/21 11:07:11;;;;;;;18.30;16.40;;;16.10;64.30;;;;;;5005867;28;20438;-87
2022/03/21 11:09:39;;;;;;;18.77;16.00;;;16.10;61.20;;;;;;4991111;28;21154;-88
2022/03/21 11:12:07;;;;;;;16.40;14.67;;;16.10;60.50;;;;;;4987999;28;20952;-88
2022/03/21 11:14:40;;;;;;;18.87;16.83;;;16.30;56.80;;;;;;5005331;28;20461;-88
2022/03/21 11:17:07;;;;;;;23.17;15.73;;;16.50;59.20;;;;;;4990700;28;20831;-84
2022/03/21 11:19:33;;;;;;;17.30;15.50;;;16.70;58.10;;;;;;4985805;28;20844;-88
2022/03/21 11:22:02;;;;;;;16.80;15.10;;;16.70;56.70;;;;;;4994057;28;20449;-88
2022/03/21 11:24:29;;;;;;;18.90;16.67;;;16.90;56.40;;;;;;4991363;28;20457;-89
2022/03/21 11:27:13;;;;;;;18.77;15.43;;;17.50;57.60;;;;;;4993867;28;20492;-88
2022/03/21 11:30:04;;;;;;;16.57;14.87;;;17.80;57.20;;;;;;4998571;28;20857;-88
2022/03/21 11:32:43;;;;;;;18.93;16.23;;;18.70;73.80;;;;;;4983832;28;21022;-88
2022/03/21 11:35:17;;;;;;;17.00;15.30;;;18.60;68.30;;;;;;4990312;28;20651;-88
2022/03/21 11:37:43;;;;;;;18.00;15.30;;;18.20;60.00;;;;;;4985916;28;20984;-89
2022/03/21 11:40:30;;;;;;;17.70;15.77;;;18.00;62.20;;;;;;4982543;28;20451;-90
2022/03/21 11:43:18;;;;;;;17.60;15.83;;;17.90;65.00;;;;;;4982770;28;20195;-88
2022/03/21 11:45:46;;;;;;;18.40;16.50;;;18.40;60.50;;;;;;5000031;28;20963;-86
2022/03/21 11:48:17;;;;;;;17.70;16.00;;;18.20;67.70;;;;;;4977208;28;20431;-88
2022/03/21 11:50:44;;;;;;;17.93;16.13;;;18.20;59.80;;;;;;4974724;28;20794;-88
2022/03/21 11:53:14;;;;;;;17.60;15.67;;;18.20;63.60;;;;;;4969875;28;21109;-88
2022/03/21 11:55:41;;;;;;;18.63;15.40;;;18.40;63.40;;;;;;4974688;28;20450;-89
2022/03/21 11:58:22;;;;;;;16.10;14.20;;;18.70;62.40;;;;;;4986390;28;21176;-87
2022/03/21 12:01:09;;;;;;;16.93;14.47;;;18.80;57.00;;;;;;4975683;28;20886;-89
2022/03/21 12:03:36;;;;;;;17.73;15.47;;;18.60;58.20;;;;;;5004539;28;20446;-89
2022/03/21 12:06:20;;;;;;;17.13;15.33;;;18.60;61.50;;;;;;4979429;28;20439;-87
2022/03/21 12:09:08;;;;;;;16.80;14.60;;;18.30;60.30;;;;;;4977359;28;20455;-86
2022/03/21 12:11:47;;;;;;;16.43;14.23;;;18.10;62.80;;;;;;4996148;28;20481;-87
2022/03/21 12:14:25;;;;;;;16.73;15.00;;;18.30;62.40;;;;;;4973852;28;20821;-87
2022/03/21 12:17:03;;;;;;;17.07;14.73;;;18.20;60.60;;;;;;4975643;28;20852;-87
2022/03/21 12:19:47;;;;;;;15.40;13.80;;;18.20;60.40;;;;;;4974691;28;21998;-87
2022/03/21 12:22:34;;;;;;;16.20;14.10;;;18.50;61.00;;;;;;4974028;28;20524;-88
2022/03/21 12:25:41;;;;;;;19.87;15.70;;;18.20;60.30;;;;;;4966414;28;20454;-87
2022/03/21 12:28:16;;;;;;;15.30;13.00;;;18.30;61.70;;;;;;4975983;28;20501;-86
2022/03/21 12:30:41;;;;;;;17.97;14.00;;;18.40;63.80;;;;;;4972789;28;20444;-87
2022/03/21 12:33:10;;;;;;;17.27;14.20;;;18.40;59.60;;;;;;4970654;28;20447;-88
2022/03/21 12:35:39;;;;;;;15.87;12.10;;;18.50;61.60;;;;;;4971194;28;20176;-89
2022/03/21 12:38:09;;;;;;;17.10;12.73;;;19.00;62.60;;;;;;4970311;28;22471;-88
2022/03/21 12:40:52;;;;;;;14.07;12.20;;;18.90;59.80;;;;;;4981757;28;20530;-88
2022/03/21 12:43:27;;;;;;;16.93;12.20;;;18.60;57.90;;;;;;4987307;28;20442;-88
2022/03/21 12:46:09;;;;;;;19.20;13.47;;;19.10;57.70;;;;;;4980255;28;20446;-86
2022/03/21 12:48:40;;;;;;;15.10;12.47;;;19.10;57.50;;;;;;4997280;28;20528;-88
2022/03/21 12:51:07;;;;;;;15.10;12.67;;;19.30;57.80;;;;;;4979427;28;20451;-89
2022/03/21 12:53:56;;;;;;;13.57;10.83;;;19.60;58.60;;;;;;4972099;28;22243;-87
2022/03/21 12:56:25;;;;;;;17.27;11.40;;;19.40;55.00;;;;;;4989612;28;20530;-87
2022/03/21 12:59:01;;;;;;;14.40;11.07;;;18.70;54.70;;;;;;4982185;28;20482;-87
2022/03/21 13:01:27;;;;;;;12.70;11.40;;;18.60;55.30;;;;;;4989504;28;20447;-89
2022/03/21 13:12:34;;;;;;;11.17;10.00;;;19.30;56.40;;;;;;5004200;28;20437;-88
2022/03/21 13:15:03;;;;;;;12.10;9.73;;;19.10;55.20;;;;;;4984643;28;20450;-87